Time;durP1;ratioP1;P1;durP2;ratioP2;P2;SDS_P1;SDS_P2;PMS_P1;PMS_P2;Temp;Humidity;BMP_temperature;BMP_pressure;BME280_temperature;BME280_humidity;BME280_pressure;Samples;Min_cycle;Max_cycle;Signal;HPM_P1;HPM_P2
2021/06/14 00:01:57;;;;;;;5.43;3.60;;;14.50;91.70;;;;;;5043694;28;20041;-85
2021/06/14 00:04:23;;;;;;;8.23;3.75;;;14.50;91.80;;;;;;5044698;28;20059;-85
2021/06/14 00:06:48;;;;;;;5.30;3.60;;;14.50;91.90;;;;;;5048067;28;20425;-84
2021/06/14 00:09:19;;;;;;;6.93;3.63;;;14.40;91.80;;;;;;5038229;28;20037;-84
2021/06/14 00:11:44;;;;;;;5.65;3.20;;;14.40;91.80;;;;;;5048927;28;20029;-85
2021/06/14 00:14:10;;;;;;;9.10;4.28;;;14.40;91.80;;;;;;5036200;28;20033;-85
2021/06/14 00:16:37;;;;;;;7.60;3.65;;;14.40;92.00;;;;;;5051197;28;20037;-84
2021/06/14 00:19:05;;;;;;;6.68;3.15;;;14.30;92.10;;;;;;5057831;28;20126;-85
2021/06/14 00:21:31;;;;;;;8.52;3.40;;;14.30;92.20;;;;;;5062608;28;20461;-85
2021/06/14 00:23:56;;;;;;;7.40;3.95;;;14.30;92.10;;;;;;5040213;28;20049;-84
2021/06/14 00:26:22;;;;;;;5.95;3.63;;;14.20;92.20;;;;;;5043123;28;20040;-84
2021/06/14 00:28:47;;;;;;;6.38;3.45;;;14.20;92.30;;;;;;5047457;28;20039;-84
2021/06/14 00:31:13;;;;;;;7.32;4.00;;;14.20;92.40;;;;;;5049476;28;20163;-84
2021/06/14 00:33:39;;;;;;;6.72;3.67;;;14.20;92.40;;;;;;5050715;28;20052;-84
2021/06/14 00:36:06;;;;;;;7.40;3.97;;;14.10;92.40;;;;;;5049980;28;20037;-84
2021/06/14 00:38:32;;;;;;;8.43;3.03;;;14.10;92.40;;;;;;5048052;28;20041;-84
2021/06/14 00:40:57;;;;;;;4.65;3.40;;;14.10;92.40;;;;;;5051401;28;20037;-84
2021/06/14 00:43:23;;;;;;;7.80;3.88;;;14.10;92.40;;;;;;5043716;28;20046;-86
2021/06/14 00:45:51;;;;;;;6.63;3.90;;;14.00;92.50;;;;;;5049741;28;20044;-85
2021/06/14 00:48:17;;;;;;;8.93;3.78;;;14.00;92.60;;;;;;5050542;28;20055;-85
2021/06/14 00:50:48;;;;;;;11.35;4.55;;;14.00;92.70;;;;;;5040184;28;20037;-85
2021/06/14 00:53:18;;;;;;;5.30;3.60;;;13.90;92.70;;;;;;5036214;28;20033;-85
2021/06/14 00:55:45;;;;;;;6.10;3.05;;;13.90;92.70;;;;;;5039025;28;20042;-86
2021/06/14 00:58:11;;;;;;;6.05;3.80;;;13.90;92.80;;;;;;5051297;28;20072;-84
2021/06/14 01:00:37;;;;;;;6.28;3.80;;;13.90;92.90;;;;;;5057655;28;20053;-85
2021/06/14 01:03:03;;;;;;;6.80;4.30;;;13.90;93.00;;;;;;5041167;28;20034;-85
2021/06/14 01:05:33;;;;;;;8.90;3.40;;;13.90;93.00;;;;;;5042221;28;20363;-85
2021/06/14 01:07:59;;;;;;;6.20;4.00;;;13.90;93.00;;;;;;5052008;28;20040;-85
2021/06/14 01:10:24;;;;;;;6.82;3.80;;;13.80;93.10;;;;;;5054693;28;20132;-84
2021/06/14 01:13:23;;;;;;;6.95;4.13;;;13.80;93.10;;;;;;5048317;28;20037;-84
2021/06/14 01:16:28;;;;;;;8.20;4.57;;;13.80;93.10;;;;;;5055490;28;20689;-85
2021/06/14 01:19:15;;;;;;;7.70;4.30;;;13.80;93.10;;;;;;5041167;28;20033;-85
2021/06/14 01:22:02;;;;;;;7.20;4.20;;;13.70;93.20;;;;;;5050463;28;20048;-85
2021/06/14 01:24:46;;;;;;;6.60;3.97;;;13.70;93.20;;;;;;5041109;28;20037;-85
2021/06/14 01:27:12;;;;;;;7.25;3.45;;;13.70;93.30;;;;;;5051131;28;20041;-85
2021/06/14 01:29:39;;;;;;;9.27;4.45;;;13.70;93.30;;;;;;5052146;28;20124;-84
2021/06/14 01:32:07;;;;;;;8.00;4.38;;;13.60;93.30;;;;;;5044425;28;20277;-84
2021/06/14 01:34:37;;;;;;;10.13;5.03;;;13.60;93.40;;;;;;5053848;28;20398;-85
2021/06/14 01:37:06;;;;;;;8.65;4.03;;;13.60;93.40;;;;;;5056191;28;20120;-85
2021/06/14 01:39:37;;;;;;;9.35;4.45;;;13.60;93.40;;;;;;5059906;28;20083;-85
2021/06/14 01:42:04;;;;;;;9.20;5.00;;;13.60;93.50;;;;;;5053248;28;20065;-84
2021/06/14 01:44:31;;;;;;;10.80;4.80;;;13.50;93.60;;;;;;5043285;28;20044;-84
2021/06/14 01:46:59;;;;;;;8.52;4.03;;;13.50;93.80;;;;;;5038373;28;20312;-85
2021/06/14 01:49:26;;;;;;;10.55;4.18;;;13.50;93.80;;;;;;5047623;28;20160;-84
2021/06/14 01:51:52;;;;;;;10.77;5.43;;;13.50;93.80;;;;;;5054769;28;20037;-85
2021/06/14 01:54:18;;;;;;;7.63;4.00;;;13.50;93.80;;;;;;5042483;28;20037;-83
2021/06/14 01:56:49;;;;;;;6.78;4.28;;;13.40;93.80;;;;;;5053986;28;20343;-84
2021/06/14 01:59:23;;;;;;;15.37;5.33;;;13.40;93.80;;;;;;5041209;28;20048;-84
2021/06/14 02:01:49;;;;;;;9.07;4.10;;;13.40;93.90;;;;;;5048801;28;20044;-85
2021/06/14 02:04:16;;;;;;;11.18;4.75;;;13.40;94.00;;;;;;5039645;28;20034;-85
2021/06/14 02:06:44;;;;;;;10.05;5.00;;;13.30;94.10;;;;;;5055272;28;20033;-84
2021/06/14 02:09:13;;;;;;;9.60;4.95;;;13.30;94.10;;;;;;5060602;28;20041;-84
2021/06/14 02:11:43;;;;;;;10.73;4.38;;;13.30;94.10;;;;;;5048138;28;20480;-84
2021/06/14 02:14:12;;;;;;;11.48;5.43;;;13.20;94.10;;;;;;5050416;28;20180;-84
2021/06/14 02:16:38;;;;;;;9.52;5.00;;;13.20;94.20;;;;;;5039716;28;20049;-85
2021/06/14 02:19:06;;;;;;;8.73;5.05;;;13.20;94.20;;;;;;5064127;28;20064;-85
2021/06/14 02:21:32;;;;;;;9.15;4.10;;;13.20;94.20;;;;;;5063026;28;20048;-83
2021/06/14 02:23:57;;;;;;;8.88;4.80;;;13.20;94.30;;;;;;5060868;28;20104;-85
2021/06/14 02:26:23;;;;;;;10.82;5.53;;;13.20;94.40;;;;;;5047660;28;20041;-84
2021/06/14 02:28:49;;;;;;;8.27;4.78;;;13.20;94.40;;;;;;5044472;28;20052;-85
2021/06/14 02:31:14;;;;;;;9.35;5.10;;;13.10;94.40;;;;;;5045070;28;20179;-85
2021/06/14 02:33:41;;;;;;;6.70;3.97;;;13.10;94.40;;;;;;5041720;28;20033;-86
2021/06/14 02:36:07;;;;;;;7.60;5.28;;;13.10;94.50;;;;;;5040695;28;20082;-85
2021/06/14 02:38:35;;;;;;;8.38;5.50;;;13.10;94.50;;;;;;5048347;28;20042;-86
2021/06/14 02:41:01;;;;;;;10.57;5.60;;;13.10;94.50;;;;;;5054249;28;20392;-85
2021/06/14 02:43:27;;;;;;;9.93;5.53;;;13.10;94.60;;;;;;5050430;28;20435;-85
2021/06/14 02:45:53;;;;;;;8.27;4.30;;;13.00;94.70;;;;;;5049036;28;20041;-83
2021/06/14 02:48:19;;;;;;;8.25;4.97;;;13.00;94.70;;;;;;5041339;28;20144;-82
2021/06/14 02:50:45;;;;;;;10.70;4.43;;;13.00;94.70;;;;;;5046430;28;20029;-83
2021/06/14 02:53:13;;;;;;;8.43;4.72;;;13.00;94.60;;;;;;5049276;28;20037;-83
2021/06/14 02:56:03;;;;;;;10.95;5.00;;;13.00;94.60;;;;;;5040779;28;20171;-84
2021/06/14 02:58:32;;;;;;;9.23;4.97;;;13.00;94.60;;;;;;5064165;28;20073;-83
2021/06/14 03:00:58;;;;;;;8.40;4.90;;;13.00;94.70;;;;;;5046016;28;20290;-84
2021/06/14 03:03:23;;;;;;;8.57;5.65;;;13.00;94.70;;;;;;5043425;28;20068;-83
2021/06/14 03:05:49;;;;;;;10.27;6.50;;;12.90;94.70;;;;;;5048126;28;20068;-84
2021/06/14 03:08:17;;;;;;;8.48;4.28;;;12.90;94.70;;;;;;5051193;28;20033;-85
2021/06/14 03:10:44;;;;;;;9.23;5.18;;;12.90;94.80;;;;;;5054891;28;20111;-84
2021/06/14 03:13:10;;;;;;;9.43;4.57;;;12.90;94.80;;;;;;5047613;28;20030;-85
2021/06/14 03:15:36;;;;;;;9.73;6.05;;;12.80;94.80;;;;;;5041208;28;20037;-85
2021/06/14 03:18:02;;;;;;;9.35;5.10;;;12.80;94.80;;;;;;5054125;28;20036;-85
2021/06/14 03:20:29;;;;;;;10.13;6.15;;;12.80;94.90;;;;;;5039312;28;20102;-85
2021/06/14 03:22:54;;;;;;;8.90;5.63;;;12.80;94.90;;;;;;5037653;28;20037;-85
2021/06/14 03:25:21;;;;;;;8.00;4.75;;;12.80;94.90;;;;;;5046504;28;20041;-85
2021/06/14 03:27:47;;;;;;;10.95;5.57;;;12.80;94.90;;;;;;5045773;28;20415;-85
2021/06/14 03:30:13;;;;;;;8.05;5.07;;;12.80;95.00;;;;;;5054194;28;20345;-84
2021/06/14 03:32:42;;;;;;;9.00;5.72;;;12.80;95.10;;;;;;5049079;28;20044;-84
2021/06/14 03:35:11;;;;;;;10.05;6.22;;;12.80;95.40;;;;;;5041134;28;20362;-84
2021/06/14 03:37:37;;;;;;;8.48;5.28;;;12.80;95.10;;;;;;5046575;28;20044;-85
2021/06/14 03:40:04;;;;;;;13.43;6.07;;;12.80;95.10;;;;;;5046003;28;20036;-85
2021/06/14 03:42:31;;;;;;;15.60;6.13;;;12.80;95.10;;;;;;5044303;28;20446;-84
2021/06/14 03:44:57;;;;;;;10.63;6.05;;;12.80;95.20;;;;;;5036626;28;20045;-84
2021/06/14 03:47:23;;;;;;;12.35;6.32;;;12.80;95.20;;;;;;5041313;28;20301;-84
2021/06/14 03:49:48;;;;;;;10.27;6.13;;;12.80;95.30;;;;;;5058835;28;20084;-85
2021/06/14 03:52:14;;;;;;;7.90;5.47;;;12.80;95.40;;;;;;5051398;28;20041;-85
2021/06/14 03:54:40;;;;;;;9.43;6.05;;;12.80;95.40;;;;;;5051868;28;20126;-84
2021/06/14 03:57:06;;;;;;;11.77;6.40;;;12.80;95.40;;;;;;5042118;28;20486;-85
2021/06/14 03:59:31;;;;;;;11.35;6.10;;;12.90;95.40;;;;;;5041324;28;20033;-85
2021/06/14 04:01:57;;;;;;;11.77;5.68;;;12.90;95.40;;;;;;5050886;28;20056;-84
2021/06/14 04:07:07;;;;;;;9.13;6.18;;;12.90;95.50;;;;;;5052902;28;20101;-85
2021/06/14 04:09:32;;;;;;;12.27;5.35;;;13.00;95.50;;;;;;5040199;28;20350;-84
2021/06/14 04:12:00;;;;;;;9.27;6.25;;;13.00;95.50;;;;;;5036641;28;20079;-84
2021/06/14 04:14:26;;;;;;;10.85;7.40;;;13.10;95.50;;;;;;5044406;28;20048;-85
2021/06/14 04:16:51;;;;;;;10.45;6.00;;;13.10;95.50;;;;;;5047108;28;20040;-85
2021/06/14 04:19:16;;;;;;;9.10;6.25;;;13.10;95.40;;;;;;5043952;28;20045;-85
2021/06/14 04:21:42;;;;;;;10.40;6.05;;;13.20;95.40;;;;;;5043758;28;20390;-85
2021/06/14 04:24:08;;;;;;;13.60;5.45;;;13.30;95.40;;;;;;5047265;28;20046;-85
2021/06/14 04:26:33;;;;;;;9.70;5.75;;;13.30;95.40;;;;;;5041151;28;20048;-83
2021/06/14 04:28:59;;;;;;;7.43;5.05;;;13.30;95.30;;;;;;5048892;28;20032;-84
2021/06/14 04:31:24;;;;;;;14.98;5.78;;;13.40;95.30;;;;;;5045009;28;20111;-85
2021/06/14 04:33:53;;;;;;;8.82;5.82;;;13.50;95.30;;;;;;5050852;28;20122;-84
2021/06/14 04:36:19;;;;;;;9.45;6.00;;;13.50;95.20;;;;;;5060729;28;20109;-84
2021/06/14 04:38:44;;;;;;;10.60;6.00;;;13.60;95.10;;;;;;5047676;28;20116;-84
2021/06/14 04:41:10;;;;;;;8.35;5.60;;;13.70;95.00;;;;;;5040690;28;20294;-85
2021/06/14 04:43:36;;;;;;;9.32;5.53;;;13.70;95.00;;;;;;5058737;28;20052;-84
2021/06/14 04:46:01;;;;;;;9.05;5.35;;;13.80;94.90;;;;;;5046409;28;20047;-83
2021/06/14 04:48:27;;;;;;;9.00;5.18;;;13.90;94.70;;;;;;5054058;28;20043;-85
2021/06/14 04:50:53;;;;;;;7.63;4.80;;;14.00;94.40;;;;;;5047616;28;20139;-83
2021/06/14 04:53:18;;;;;;;9.25;5.15;;;14.10;94.20;;;;;;5044098;28;20455;-82
2021/06/14 04:55:44;;;;;;;7.72;4.68;;;14.20;94.10;;;;;;5045467;28;20491;-84
2021/06/14 04:58:10;;;;;;;8.93;4.57;;;14.30;93.80;;;;;;5047095;28;20178;-81
2021/06/14 05:00:36;;;;;;;7.20;4.65;;;14.40;93.30;;;;;;5057685;28;20053;-84
2021/06/14 05:03:02;;;;;;;9.10;5.13;;;14.50;92.90;;;;;;5049525;28;20136;-85
2021/06/14 05:05:27;;;;;;;9.88;4.95;;;14.50;92.90;;;;;;5047622;28;20041;-85
2021/06/14 05:07:53;;;;;;;7.88;5.32;;;14.60;92.90;;;;;;5053773;28;20036;-83
2021/06/14 05:10:18;;;;;;;9.02;4.65;;;14.70;92.80;;;;;;5052013;28;20059;-84
2021/06/14 05:12:44;;;;;;;8.43;4.63;;;14.80;92.80;;;;;;5053301;28;20065;-84
2021/06/14 05:15:10;;;;;;;7.43;4.50;;;14.90;92.70;;;;;;5043411;28;20121;-84
2021/06/14 05:17:36;;;;;;;6.65;4.03;;;15.00;92.80;;;;;;5053414;28;20036;-83
2021/06/14 05:20:03;;;;;;;10.73;4.75;;;15.00;92.70;;;;;;5059150;28;20037;-83
2021/06/14 05:22:29;;;;;;;8.45;4.72;;;15.10;92.60;;;;;;5065528;28;20041;-84
2021/06/14 05:24:54;;;;;;;9.40;4.57;;;15.10;91.80;;;;;;5062604;28;20139;-84
2021/06/14 05:27:20;;;;;;;17.35;4.63;;;15.20;91.70;;;;;;5060715;28;20093;-83
2021/06/14 05:29:45;;;;;;;18.83;5.72;;;15.20;91.70;;;;;;5059085;28;20044;-83
2021/06/14 05:32:11;;;;;;;8.80;4.65;;;15.40;91.60;;;;;;5059954;28;20045;-84
2021/06/14 05:34:36;;;;;;;9.75;5.13;;;15.40;91.40;;;;;;5062443;28;20080;-83
2021/06/14 05:37:02;;;;;;;7.95;4.75;;;15.50;91.40;;;;;;5066263;28;20044;-84
2021/06/14 05:39:28;;;;;;;7.13;4.13;;;15.60;91.20;;;;;;5062683;28;20128;-85
2021/06/14 05:41:53;;;;;;;7.72;4.32;;;15.60;91.00;;;;;;5060459;28;20040;-82
2021/06/14 05:44:19;;;;;;;9.52;4.05;;;15.70;90.90;;;;;;5056862;28;20041;-82
2021/06/14 05:46:45;;;;;;;8.52;4.30;;;15.80;90.70;;;;;;5056816;28;20076;-81
2021/06/14 05:49:10;;;;;;;7.43;4.75;;;15.90;90.80;;;;;;5053322;28;20041;-83
2021/06/14 05:51:38;;;;;;;8.95;4.65;;;15.90;90.70;;;;;;5057511;28;20041;-84
2021/06/14 05:54:04;;;;;;;8.93;3.83;;;16.00;90.20;;;;;;5057847;28;20033;-84
2021/06/14 05:56:29;;;;;;;5.60;3.80;;;16.00;90.30;;;;;;5055997;28;20151;-83
2021/06/14 05:58:55;;;;;;;9.90;4.22;;;16.20;90.00;;;;;;5055982;28;20037;-83
2021/06/14 06:01:20;;;;;;;8.80;4.22;;;16.20;90.00;;;;;;5057383;28;20037;-83
2021/06/14 06:03:46;;;;;;;5.85;4.15;;;16.30;90.10;;;;;;5056636;28;20033;-83
2021/06/14 06:06:11;;;;;;;7.53;3.75;;;16.30;89.90;;;;;;5056047;28;20071;-82
2021/06/14 06:08:37;;;;;;;5.75;4.05;;;16.40;89.60;;;;;;5056005;28;20081;-83
2021/06/14 06:11:04;;;;;;;10.07;3.80;;;16.50;89.40;;;;;;5055988;28;20635;-84
2021/06/14 06:13:29;;;;;;;8.60;4.18;;;16.50;88.60;;;;;;5056423;28;20032;-84
2021/06/14 06:15:55;;;;;;;6.15;3.88;;;16.70;88.30;;;;;;5056544;28;20158;-83
2021/06/14 06:18:20;;;;;;;6.47;3.80;;;16.80;88.10;;;;;;5057643;28;20547;-84
2021/06/14 06:20:46;;;;;;;8.00;4.07;;;17.00;88.00;;;;;;5054964;28;20068;-84
2021/06/14 06:23:12;;;;;;;10.00;3.75;;;17.20;86.80;;;;;;5055827;28;20595;-84
2021/06/14 06:25:37;;;;;;;7.78;3.80;;;17.40;86.90;;;;;;5055211;28;20041;-84
2021/06/14 06:28:03;;;;;;;7.22;3.47;;;17.60;86.80;;;;;;5055307;28;20099;-83
2021/06/14 06:30:30;;;;;;;6.03;3.20;;;17.80;85.00;;;;;;5056442;28;20037;-84
2021/06/14 06:32:56;;;;;;;10.68;4.40;;;17.90;84.80;;;;;;5054907;28;20033;-84
2021/06/14 06:35:22;;;;;;;9.07;3.83;;;18.00;83.90;;;;;;5055620;28;20199;-85
2021/06/14 06:37:48;;;;;;;10.88;4.20;;;18.10;83.60;;;;;;5055427;28;20075;-84
2021/06/14 06:40:14;;;;;;;4.97;2.95;;;18.10;83.80;;;;;;5055469;28;20048;-83
2021/06/14 06:42:42;;;;;;;7.55;3.75;;;18.20;83.80;;;;;;5055207;28;20103;-83
2021/06/14 06:45:09;;;;;;;7.80;3.22;;;18.20;83.50;;;;;;5058337;28;20056;-83
2021/06/14 06:47:35;;;;;;;6.95;3.33;;;18.20;83.30;;;;;;5065891;28;20074;-83
2021/06/14 06:50:02;;;;;;;9.48;4.07;;;18.30;83.70;;;;;;5058353;28;20116;-83
2021/06/14 06:52:28;;;;;;;5.25;2.85;;;18.40;83.90;;;;;;5055799;28;20033;-84
2021/06/14 06:54:53;;;;;;;9.07;3.13;;;18.40;84.20;;;;;;5056016;28;20036;-83
2021/06/14 06:57:20;;;;;;;5.13;2.28;;;18.60;84.10;;;;;;5056820;28;20304;-84
2021/06/14 06:59:46;;;;;;;5.60;2.92;;;18.60;81.90;;;;;;5050530;28;20116;-85
2021/06/14 07:02:11;;;;;;;5.47;3.17;;;18.80;81.40;;;;;;5049040;28;20095;-85
2021/06/14 07:04:37;;;;;;;7.15;3.45;;;18.90;81.60;;;;;;5058197;28;20073;-85
2021/06/14 07:07:04;;;;;;;7.97;3.20;;;19.00;80.60;;;;;;5039290;28;20049;-83
2021/06/14 07:09:29;;;;;;;5.28;2.83;;;19.10;80.80;;;;;;5036770;28;20033;-83
2021/06/14 07:11:56;;;;;;;7.18;2.65;;;19.20;81.90;;;;;;5036195;28;20048;-84
2021/06/14 07:14:22;;;;;;;5.03;2.53;;;19.20;80.30;;;;;;5034593;28;20095;-84
2021/06/14 07:16:48;;;;;;;6.30;2.95;;;19.40;81.10;;;;;;5035197;28;20038;-84
2021/06/14 07:19:14;;;;;;;6.60;2.65;;;19.50;78.30;;;;;;5055862;28;20044;-85
2021/06/14 07:21:42;;;;;;;8.70;2.90;;;19.60;77.10;;;;;;5063606;28;20037;-85
2021/06/14 07:24:08;;;;;;;8.15;3.05;;;19.80;75.60;;;;;;5040921;28;20343;-83
2021/06/14 07:26:34;;;;;;;5.00;2.53;;;19.90;74.00;;;;;;5050535;28;20052;-87
2021/06/14 07:29:00;;;;;;;8.70;2.45;;;19.90;74.00;;;;;;5047371;28;20028;-82
2021/06/14 07:31:27;;;;;;;4.65;2.55;;;19.90;77.00;;;;;;5037002;28;20037;-82
2021/06/14 07:33:57;;;;;;;6.90;2.25;;;20.00;73.70;;;;;;5046560;28;20041;-84
2021/06/14 07:36:23;;;;;;;6.78;2.22;;;20.20;74.00;;;;;;5034994;28;20061;-84
2021/06/14 07:38:49;;;;;;;4.25;2.20;;;20.30;74.40;;;;;;5036862;28;20041;-84
2021/06/14 07:41:14;;;;;;;7.35;2.53;;;20.40;73.40;;;;;;5047890;28;20282;-85
2021/06/14 07:43:40;;;;;;;4.80;2.65;;;20.50;71.80;;;;;;5041417;28;20037;-86
2021/06/14 07:46:06;;;;;;;5.97;2.42;;;20.60;71.30;;;;;;5048553;28;20095;-86
2021/06/14 07:48:32;;;;;;;3.03;1.63;;;20.70;71.70;;;;;;5046512;28;20053;-82
2021/06/14 07:50:58;;;;;;;5.68;2.55;;;20.90;71.60;;;;;;5048772;28;20340;-81
2021/06/14 07:53:23;;;;;;;6.25;2.40;;;21.00;71.60;;;;;;5053174;28;20047;-81
2021/06/14 07:55:52;;;;;;;3.63;1.85;;;21.10;70.20;;;;;;5047395;28;20311;-81
2021/06/14 07:58:17;;;;;;;6.78;2.13;;;21.20;69.90;;;;;;5034120;28;20308;-81
2021/06/14 08:00:43;;;;;;;3.85;2.20;;;21.20;69.60;;;;;;5040668;28;20045;-80
2021/06/14 08:03:09;;;;;;;8.75;2.20;;;21.30;69.70;;;;;;5050687;28;20371;-81
2021/06/14 08:05:35;;;;;;;7.53;2.47;;;21.40;69.20;;;;;;5043671;28;20646;-81
2021/06/14 08:08:00;;;;;;;6.00;2.85;;;21.50;70.70;;;;;;5051206;28;20124;-81
2021/06/14 08:10:27;;;;;;;4.63;1.77;;;21.60;68.00;;;;;;5034403;28;20048;-81
2021/06/14 08:12:53;;;;;;;9.23;2.30;;;21.80;68.30;;;;;;5041232;28;20148;-81
2021/06/14 08:15:29;;;;;;;4.07;2.47;;;21.90;65.20;;;;;;5039802;28;20478;-81
2021/06/14 08:20:39;;;;;;;5.40;2.50;;;22.20;67.20;;;;;;5044592;28;20068;-82
2021/06/14 08:25:35;;;;;;;4.45;1.90;;;22.40;66.00;;;;;;5056117;28;20045;-81
2021/06/14 08:28:00;;;;;;;2.70;1.50;;;22.50;65.40;;;;;;5051544;28;20110;-83
2021/06/14 08:30:27;;;;;;;5.57;2.20;;;22.50;63.00;;;;;;5035947;28;20033;-81
2021/06/14 08:32:53;;;;;;;7.03;2.50;;;22.50;65.00;;;;;;5044102;28;20025;-81
2021/06/14 08:35:21;;;;;;;5.35;2.03;;;22.60;64.50;;;;;;5045359;28;20033;-81
2021/06/14 08:37:48;;;;;;;6.32;2.55;;;22.60;64.20;;;;;;5041931;28;20072;-82
2021/06/14 08:40:16;;;;;;;6.78;2.20;;;22.70;64.70;;;;;;5041104;28;20037;-81
2021/06/14 08:42:42;;;;;;;7.75;2.17;;;22.80;61.70;;;;;;5042924;28;20165;-82
2021/06/14 08:45:10;;;;;;;5.95;1.95;;;22.90;62.40;;;;;;5037989;28;20151;-81
2021/06/14 08:47:37;;;;;;;3.70;2.22;;;22.90;62.00;;;;;;5050613;28;20036;-82
2021/06/14 08:50:09;;;;;;;9.02;1.88;;;23.00;62.30;;;;;;5041776;28;20029;-82
2021/06/14 08:52:36;;;;;;;3.47;2.03;;;23.10;61.80;;;;;;5038513;28;20111;-83
2021/06/14 08:55:04;;;;;;;6.45;2.45;;;23.20;62.00;;;;;;5041388;28;20120;-82
2021/06/14 08:57:29;;;;;;;3.38;2.05;;;23.20;61.40;;;;;;5043133;28;20540;-82
2021/06/14 08:59:55;;;;;;;5.47;2.08;;;23.30;62.80;;;;;;5043016;28;20047;-82
2021/06/14 09:02:21;;;;;;;4.50;2.58;;;23.30;57.80;;;;;;5048925;28;20037;-82
2021/06/14 09:04:47;;;;;;;6.00;2.25;;;23.30;59.20;;;;;;5046784;28;20451;-82
2021/06/14 09:07:12;;;;;;;6.72;2.10;;;23.40;59.60;;;;;;5052800;28;20037;-79
2021/06/14 09:09:38;;;;;;;9.13;2.28;;;23.40;58.00;;;;;;5049553;28;20043;-82
2021/06/14 09:12:05;;;;;;;6.47;2.22;;;23.50;60.30;;;;;;5043645;28;20037;-83
2021/06/14 09:14:35;;;;;;;4.72;2.22;;;23.60;61.30;;;;;;5051610;28;20032;-81
2021/06/14 09:17:13;;;;;;;10.95;2.78;;;23.80;59.80;;;;;;5052932;28;20037;-83
2021/06/14 09:19:49;;;;;;;5.30;2.58;;;23.90;59.80;;;;;;5048529;28;20030;-83
2021/06/14 09:22:21;;;;;;;6.70;2.22;;;24.00;60.90;;;;;;5038983;28;20081;-83
2021/06/14 09:24:54;;;;;;;4.90;2.22;;;24.20;59.70;;;;;;5046126;28;20043;-83
2021/06/14 09:27:41;;;;;;;6.85;2.10;;;24.30;58.40;;;;;;5044093;28;20056;-82
2021/06/14 09:30:23;;;;;;;6.57;2.28;;;24.50;59.20;;;;;;5051239;28;20033;-82
2021/06/14 09:33:04;;;;;;;5.65;2.22;;;24.60;57.90;;;;;;5033876;28;20037;-83
2021/06/14 09:35:31;;;;;;;7.50;2.65;;;24.70;60.00;;;;;;5036482;28;20371;-82
2021/06/14 09:37:59;;;;;;;6.78;2.78;;;24.80;58.30;;;;;;5035843;28;20041;-82
2021/06/14 09:40:36;;;;;;;3.85;1.77;;;25.00;56.50;;;;;;5035842;28;20293;-82
2021/06/14 09:43:04;;;;;;;4.95;2.05;;;25.10;57.40;;;;;;5041994;28;20041;-81
2021/06/14 09:45:31;;;;;;;6.43;2.38;;;25.10;56.10;;;;;;5045656;28;20123;-82
2021/06/14 09:47:56;;;;;;;6.25;2.75;;;25.10;60.50;;;;;;5039123;28;20052;-81
2021/06/14 09:50:25;;;;;;;6.60;2.20;;;25.20;57.20;;;;;;5054905;28;20037;-82
2021/06/14 09:53:02;;;;;;;4.95;2.10;;;25.10;57.00;;;;;;5051172;28;20076;-82
2021/06/14 09:55:28;;;;;;;5.13;2.30;;;25.10;57.40;;;;;;5046329;28;20408;-82
2021/06/14 09:57:54;;;;;;;6.63;2.17;;;25.10;58.90;;;;;;5047797;28;20345;-82
2021/06/14 10:00:21;;;;;;;6.15;2.05;;;25.10;57.80;;;;;;5054546;28;20068;-82
2021/06/14 10:02:46;;;;;;;5.93;2.50;;;25.10;57.90;;;;;;5041018;28;20057;-81
2021/06/14 10:05:20;;;;;;;3.38;1.73;;;25.10;54.50;;;;;;5044046;28;20083;-81
2021/06/14 10:07:51;;;;;;;5.75;2.58;;;25.00;54.80;;;;;;5035679;28;20039;-81
2021/06/14 10:10:28;;;;;;;4.80;2.00;;;25.10;56.60;;;;;;5048326;28;20052;-81
2021/06/14 10:12:55;;;;;;;5.97;1.85;;;25.10;56.30;;;;;;5079589;28;20441;-81
2021/06/14 10:15:35;;;;;;;6.32;1.98;;;25.20;53.50;;;;;;5034862;28;20301;-81
2021/06/14 10:18:03;;;;;;;4.22;2.17;;;25.30;52.70;;;;;;5049922;28;20037;-81
2021/06/14 10:20:30;;;;;;;5.55;2.20;;;25.40;53.80;;;;;;5060316;28;20044;-82
2021/06/14 10:22:58;;;;;;;4.13;2.03;;;25.50;53.30;;;;;;5062725;28;20118;-82
2021/06/14 10:25:26;;;;;;;4.05;2.08;;;25.70;57.80;;;;;;5053985;28;20069;-81
2021/06/14 10:27:53;;;;;;;4.00;2.10;;;25.80;53.90;;;;;;5053599;28;20041;-82
2021/06/14 10:30:20;;;;;;;7.35;2.70;;;25.90;55.90;;;;;;5052421;28;20064;-81
2021/06/14 10:32:46;;;;;;;3.65;1.90;;;26.10;55.40;;;;;;5057513;28;20056;-81
2021/06/14 10:35:15;;;;;;;11.70;2.53;;;26.10;55.70;;;;;;5056672;28;20078;-81
2021/06/14 10:37:45;;;;;;;3.92;1.80;;;26.20;57.30;;;;;;5054540;28;20282;-81
2021/06/14 10:40:15;;;;;;;4.78;2.03;;;26.20;55.50;;;;;;5055127;28;20422;-79
2021/06/14 10:42:45;;;;;;;3.05;1.50;;;26.30;55.60;;;;;;5053977;28;20578;-81
2021/06/14 10:45:14;;;;;;;5.95;2.03;;;26.50;55.00;;;;;;5053311;28;20449;-80
2021/06/14 10:47:41;;;;;;;4.97;2.38;;;26.60;51.30;;;;;;5054617;28;20116;-79
2021/06/14 10:50:11;;;;;;;5.25;1.77;;;26.60;53.50;;;;;;5054343;28;20036;-82
2021/06/14 10:52:44;;;;;;;3.90;2.00;;;26.70;51.40;;;;;;5055351;28;20032;-80
2021/06/14 10:55:12;;;;;;;6.57;1.67;;;26.80;53.30;;;;;;5053913;28;20479;-79
2021/06/14 10:57:40;;;;;;;4.18;2.08;;;26.90;54.00;;;;;;5054549;28;20474;-80
2021/06/14 11:00:30;;;;;;;4.38;1.88;;;27.00;53.50;;;;;;5047847;28;20029;-81
2021/06/14 11:02:58;;;;;;;3.28;1.48;;;27.10;56.80;;;;;;5043619;28;20067;-80
2021/06/14 11:05:36;;;;;;;6.53;1.70;;;27.10;54.10;;;;;;5054291;28;20067;-80
2021/06/14 11:08:19;;;;;;;3.70;1.60;;;27.20;54.00;;;;;;5038363;28;20405;-81
2021/06/14 11:10:58;;;;;;;5.55;1.80;;;27.20;53.50;;;;;;5049321;28;20036;-81
2021/06/14 11:13:24;;;;;;;3.75;1.80;;;27.20;53.20;;;;;;5033509;28;20037;-81
2021/06/14 11:15:55;;;;;;;4.20;1.38;;;27.30;56.60;;;;;;5033773;28;20037;-81
2021/06/14 11:18:25;;;;;;;3.00;1.65;;;27.40;52.30;;;;;;5034131;28;20068;-81
2021/06/14 11:21:10;;;;;;;5.22;2.00;;;27.50;54.00;;;;;;5033252;28;20041;-82
2021/06/14 11:23:37;;;;;;;4.85;1.75;;;27.60;53.90;;;;;;5034408;28;20037;-82
2021/06/14 11:26:04;;;;;;;4.93;2.25;;;27.70;55.10;;;;;;5048392;28;20464;-82
2021/06/14 11:28:33;;;;;;;3.22;2.15;;;27.80;50.60;;;;;;5043603;28;20148;-81
2021/06/14 11:31:00;;;;;;;4.55;1.70;;;27.90;53.00;;;;;;5041928;28;20048;-81
2021/06/14 11:33:28;;;;;;;6.93;1.70;;;28.00;51.40;;;;;;5032970;28;20152;-81
2021/06/14 11:35:56;;;;;;;3.72;1.60;;;27.90;50.30;;;;;;5052984;28;21255;-83
2021/06/14 11:38:24;;;;;;;4.13;1.73;;;27.90;53.30;;;;;;5053379;28;20147;-81
2021/06/14 11:40:52;;;;;;;4.97;1.65;;;27.90;51.00;;;;;;5054391;28;20672;-81
2021/06/14 11:43:19;;;;;;;3.38;1.33;;;27.90;50.90;;;;;;5045748;28;20045;-81
2021/06/14 11:45:46;;;;;;;6.30;1.85;;;27.80;50.50;;;;;;5037515;28;20095;-81
2021/06/14 11:48:18;;;;;;;3.97;1.60;;;27.70;53.30;;;;;;5053859;28;20036;-82
2021/06/14 11:50:43;;;;;;;4.55;1.75;;;27.70;50.70;;;;;;5053744;28;20040;-81
2021/06/14 11:53:09;;;;;;;5.13;1.42;;;27.70;53.00;;;;;;5054708;28;20427;-82
2021/06/14 11:55:41;;;;;;;3.60;1.70;;;27.70;50.90;;;;;;5053565;28;20096;-81
2021/06/14 11:58:09;;;;;;;7.85;1.52;;;27.80;52.60;;;;;;5052646;28;20040;-80
2021/06/14 12:00:37;;;;;;;3.65;1.70;;;27.90;51.50;;;;;;5053050;28;20037;-81
2021/06/14 12:03:25;;;;;;;6.35;2.00;;;27.90;48.60;;;;;;5042400;28;20041;-81
2021/06/14 12:05:54;;;;;;;2.40;1.50;;;27.90;49.50;;;;;;5044300;28;20037;-81
2021/06/14 12:08:22;;;;;;;2.95;1.38;;;28.00;51.40;;;;;;5038127;28;20045;-79
2021/06/14 12:10:50;;;;;;;2.22;1.63;;;28.10;49.40;;;;;;5042013;28;20114;-81
2021/06/14 12:13:18;;;;;;;7.60;1.98;;;28.20;53.60;;;;;;5034917;28;20412;-81
2021/06/14 12:15:45;;;;;;;5.00;1.60;;;28.30;51.40;;;;;;5041432;28;20037;-81
2021/06/14 12:18:12;;;;;;;3.67;1.80;;;28.40;49.30;;;;;;5052145;28;20033;-80
2021/06/14 12:20:39;;;;;;;7.70;2.28;;;28.40;49.80;;;;;;5041756;28;20048;-81
2021/06/14 12:23:14;;;;;;;5.20;1.67;;;28.50;48.70;;;;;;5058069;28;20037;-81
2021/06/14 12:25:42;;;;;;;3.05;1.70;;;28.60;49.70;;;;;;5042372;28;20049;-82
2021/06/14 12:28:13;;;;;;;2.97;1.48;;;28.60;50.40;;;;;;5042898;28;20056;-80
2021/06/14 12:30:44;;;;;;;3.70;2.25;;;28.60;49.00;;;;;;5041773;28;20045;-81
2021/06/14 12:33:10;;;;;;;5.80;2.03;;;28.60;48.40;;;;;;5043179;28;20415;-81
2021/06/14 12:35:37;;;;;;;2.90;1.67;;;28.60;51.70;;;;;;5041337;28;20037;-81
2021/06/14 12:38:11;;;;;;;4.90;1.85;;;28.60;50.10;;;;;;5039454;28;20041;-81
2021/06/14 12:40:39;;;;;;;5.60;1.80;;;28.70;50.30;;;;;;5047122;28;20040;-81
2021/06/14 12:43:09;;;;;;;3.28;1.60;;;28.70;50.50;;;;;;5047424;28;20040;-80
2021/06/14 12:45:38;;;;;;;4.35;1.90;;;28.70;49.30;;;;;;5039565;28;20039;-81
2021/06/14 12:48:06;;;;;;;3.88;1.75;;;28.70;54.20;;;;;;5044231;28;20060;-81
2021/06/14 12:50:35;;;;;;;3.63;1.85;;;28.70;48.40;;;;;;5041086;28;20125;-81
2021/06/14 12:53:03;;;;;;;5.63;2.20;;;28.70;48.80;;;;;;5039562;28;20565;-81
2021/06/14 12:55:30;;;;;;;3.20;1.75;;;28.80;48.10;;;;;;5037695;28;20079;-79
2021/06/14 12:57:57;;;;;;;4.95;2.10;;;28.80;50.00;;;;;;5043154;28;20345;-80